Flight Briefing for CPX965

Departure Arrival
Li├Ęge Airport (EBLG)
Click to view FAA NOTAMS
Ramstein Air Force Base (ETAR)
Click to view FAA NOTAMS
Departure Time Arrival Time
N/A N/A
Aircraft Distance
B767-300BDSF 111nm
Departure METAR Arrival METAR
EBLG 271220Z 29006KT 240V350 9999 FEW036 17/10 Q1010 NOSIG ETAR 271206Z AUTO 27006KT 9999 -RA FEW013 FEW018 BKN031 BKN040 16/14 A2985 RMK AO2 RAE02RAB06 SLP111 $
Suggested Route
LAREP UN852 DIK


View recent IFR Routes data
Notes
EMPTY | NON-REVENUE REPOSITIONING LEG

Charts and Procedures

Charts for EBLG
No chart available
Charts for ETAR
No chart available

Windy.com Weather Map